地図

経路データ

SID SEASON NUMBER BASIN SUBBASIN NAME ISO_TIME NATURE LAT LON WMO_WIND WMO_PRES WMO_AGENCY TRACK_TYPE DIST2LAND LANDFALL IFLAG USA_AGENCY USA_ATCF_ID USA_LAT USA_LON USA_RECORD USA_STATUS USA_WIND USA_PRES USA_SSHS USA_R34_NE USA_R34_SE USA_R34_SW USA_R34_NW USA_R50_NE USA_R50_SE USA_R50_SW USA_R50_NW USA_R64_NE USA_R64_SE USA_R64_SW USA_R64_NW USA_POCI USA_ROCI USA_RMW USA_EYE TOKYO_LAT TOKYO_LON TOKYO_GRADE TOKYO_WIND TOKYO_PRES TOKYO_R50_DIR TOKYO_R50_LONG TOKYO_R50_SHORT TOKYO_R30_DIR TOKYO_R30_LONG TOKYO_R30_SHORT TOKYO_LAND CMA_LAT CMA_LON CMA_CAT CMA_WIND CMA_PRES HKO_LAT HKO_LON HKO_CAT HKO_WIND HKO_PRES NEWDELHI_LAT NEWDELHI_LON NEWDELHI_GRADE NEWDELHI_WIND NEWDELHI_PRES NEWDELHI_CI NEWDELHI_DP NEWDELHI_POCI REUNION_LAT REUNION_LON REUNION_TYPE REUNION_WIND REUNION_PRES REUNION_TNUM REUNION_CI REUNION_RMW REUNION_R34_NE REUNION_R34_SE REUNION_R34_SW REUNION_R34_NW REUNION_R50_NE REUNION_R50_SE REUNION_R50_SW REUNION_R50_NW REUNION_R64_NE REUNION_R64_SE REUNION_R64_SW REUNION_R64_NW BOM_LAT BOM_LON BOM_TYPE BOM_WIND BOM_PRES BOM_TNUM BOM_CI BOM_RMW BOM_R34_NE BOM_R34_SE BOM_R34_SW BOM_R34_NW BOM_R50_NE BOM_R50_SE BOM_R50_SW BOM_R50_NW BOM_R64_NE BOM_R64_SE BOM_R64_SW BOM_R64_NW BOM_ROCI BOM_POCI BOM_EYE BOM_POS_METHOD BOM_PRES_METHOD NADI_LAT NADI_LON NADI_CAT NADI_WIND NADI_PRES WELLINGTON_LAT WELLINGTON_LON WELLINGTON_WIND WELLINGTON_PRES DS824_LAT DS824_LON DS824_STAGE DS824_WIND DS824_PRES TD9636_LAT TD9636_LON TD9636_STAGE TD9636_WIND TD9636_PRES TD9635_LAT TD9635_LON TD9635_WIND TD9635_PRES TD9635_ROCI NEUMANN_LAT NEUMANN_LON NEUMANN_CLASS NEUMANN_WIND NEUMANN_PRES MLC_LAT MLC_LON MLC_CLASS MLC_WIND MLC_PRES USA_GUST BOM_GUST BOM_GUST_PER REUNION_GUST REUNION_GUST_PER USA_SEAHGT USA_SEARAD_NE USA_SEARAD_SE USA_SEARAD_SW USA_SEARAD_NW STORM_SPEED STORM_DIR
1955204N11153 1955 46 WP MM GEORGIA 1955-07-23 06:00:00 TS 11.4400 153.420 1002 tokyo main 1603 1603 OOO______O_O__ jtwc_wp WP101955 11.4000 153.700 40 0 11.5000 153.000 9 1002 0 0 0 11.5000 153.000 1 29 1002 11.4000 153.700 TC 40 11.4000 153.700 40 1003 60 7 294
1955204N11153 1955 46 WP MM GEORGIA 1955-07-23 09:00:00 TS 11.5781 153.096 main 1620 1617 PPP______P_P__ WP101955 11.4901 153.295 40 0 11.7025 152.798 9 1002 0 0 11.7175 152.798 1 29 1002 11.4901 153.295 TC 40 11.4901 153.295 40 1002 90 7 294
1955204N11153 1955 46 WP MM GEORGIA 1955-07-23 12:00:00 TS 11.7125 152.788 1002 tokyo main 1627 1625 OOO______OOO__ jtwc_wp WP101955 11.6000 152.900 40 0 11.9000 152.600 9 1002 0 0 0 11.9000 152.600 1 29 1002 11.6000 152.900 TC 40 11.6000 152.900 2 40 11.6000 152.900 40 1002 120 7 297
1955204N11153 1955 46 WP MM GEORGIA 1955-07-23 15:00:00 TS 11.8788 152.499 main 1645 1644 PPP______PPP__ WP101955 11.7550 152.527 42 0 12.0925 152.407 9 1002 0 0 12.0350 152.407 1 29 1002 11.7550 152.527 TC 42 11.8824 152.689 2 42 11.7550 152.527 42 1001 120 7 306
1955204N11153 1955 46 WP MM GEORGIA 1955-07-23 18:00:00 TS 12.1094 152.232 1002 tokyo main 1664 1664 OOO______OPO__ jtwc_wp WP101955 12.0000 152.200 45 0 12.3000 152.200 9 1002 0 0 0 12.2000 152.200 1 29 1002 12.0000 152.200 TC 45 12.1719 152.443 2 45 12.0000 152.200 45 1001 120 7 320
1955204N11153 1955 46 WP MM GEORGIA 1955-07-23 21:00:00 TS 12.4428 152.009 main 1696 1696 PPP______PPP__ WP101955 12.4148 151.973 47 0 12.4973 152.002 9 1001 0 0 12.4398 152.010 1 33 1002 12.4148 151.973 TC 47 12.4754 152.125 2 47 12.4148 151.973 47 999 120 9 323
1955204N11153 1955 46 WP MM GEORGIA 1955-07-24 00:00:00 TS 12.8000 151.700 1000 tokyo main 1735 1732 OOO______OOO__ jtwc_wp WP101955 12.8000 151.700 50 0 12.8000 151.700 9 1000 0 0 0 12.8000 151.700 2 38 1002 12.8000 151.700 TC 50 12.8000 151.700 2 50 12.8000 151.700 50 998 120 10 308
1955204N11153 1955 46 WP MM GEORGIA 1955-07-24 03:00:00 TS 13.0573 151.203 main 1753 1748 PPP______PPP__ WP101955 12.8475 151.252 50 0 13.3202 151.188 9 995 0 0 13.3279 151.123 2 38 998 12.8475 151.252 TC 50 13.1531 151.152 2 52 12.8475 151.252 50 996 120 12 299
1955204N11153 1955 46 WP MM GEORGIA 1955-07-24 06:00:00 TS 13.3909 150.624 990 tokyo main 1772 1772 OOO______OPO__ jtwc_wp WP101955 13.0000 150.700 50 0 13.9000 150.600 9 990 0 0 0 13.9000 150.500 2 38 995 13.0000 150.700 TC 50 13.5457 150.546 2 55 13.0000 150.700 50 995 120 14 309
1955204N11153 1955 46 WP MM GEORGIA 1955-07-24 09:00:00 TS 13.9576 150.049 main 1826 1826 PPP______PPP__ WP101955 13.6753 150.064 55 0 14.3650 150.062 9 990 0 0 14.3647 150.077 2 48 993 13.6753 150.064 TC 55 13.9902 149.967 2 57 13.6753 150.064 55 992 120 16 319
1955204N11153 1955 46 WP MM GEORGIA 1955-07-24 12:00:00 TS 14.6000 149.550 990 tokyo main 1886 1885 OOO______OOO__ jtwc_wp WP101955 14.5000 149.500 60 0 14.8000 149.600 9 990 0 0 0 14.8000 149.700 3 58 992 14.5000 149.500 TC 60 14.5000 149.500 2 60 14.5000 149.500 60 989 120 15 328
1955204N11153 1955 46 WP MM GEORGIA 1955-07-24 15:00:00 TS 15.1797 149.248 main 1948 1948 PPP______PPP__ WP101955 15.1520 149.234 65 1 15.2572 149.285 9 990 0 0 15.2500 149.242 3 63 991 15.1520 149.234 TC 65 15.1150 149.261 2 65 15.1520 149.234 65 984 120 12 333
1955204N11153 1955 46 WP MM GEORGIA 1955-07-24 18:00:00 TS 15.7000 148.967 990 tokyo main 2001 2000 OOO______OOO__ jtwc_wp WP101955 15.7000 149.000 70 1 15.7000 149.000 9 990 0 0 0 15.7000 148.800 4 68 990 15.7000 149.000 TC 70 15.7000 149.000 3 70 15.7000 149.000 70 980 120 12 323
1955204N11153 1955 46 WP MM GEORGIA 1955-07-24 21:00:00 TS 16.0960 148.526 main 2042 2042 PPP______PPP__ WP101955 16.0852 148.522 80 1 16.0775 148.622 9 990 0 0 16.1349 148.435 4 72 988 16.0852 148.522 TC 80 16.1083 148.535 3 79 16.0852 148.522 79 980 120 12 313
1955204N11153 1955 46 WP MM GEORGIA 1955-07-25 00:00:00 TS 16.5167 148.050 990 tokyo main 2084 2084 OOO______OOO__ jtwc_wp WP101955 16.5000 148.000 90 2 16.5000 148.200 9 990 0 0 0 16.6000 148.100 4 77 987 16.5000 148.000 TC 90 16.5000 148.000 4 88 16.5000 148.000 88 980 120 13 321
1955204N11153 1955 46 WP MM GEORGIA 1955-07-25 03:00:00 TS 17.1254 147.647 main 2129 2045 PPP______PPP__ WP101955 17.1697 147.600 95 2 17.0624 147.765 9 987 0 0 17.1123 147.772 4 82 987 17.1697 147.600 TC 95 17.0684 147.547 4 93 17.1697 147.600 94 983 150 15 329
1955204N11153 1955 46 WP MM GEORGIA 1955-07-25 06:00:00 TS 17.8051 147.236 985 tokyo main 2041 1964 OOO______OPO__ jtwc_wp WP101955 17.9000 147.200 100 3 17.7000 147.300 9 985 0 0 0 17.7000 147.400 5 87 987 17.9000 147.200 TC 100 17.7309 147.113 4 99 17.9000 147.200 100 986 180 16 327
1955204N11153 1955 46 WP MM GEORGIA 1955-07-25 09:00:00 TS 18.4488 146.755 main 1964 1884 PPP______PPP__ WP101955 18.5075 146.707 105 3 18.3500 146.800 9 985 0 0 18.3924 146.937 5 87 986 18.5075 146.707 TC 105 18.4279 146.672 4 104 18.5075 146.707 105 986 180 16 324
1955204N11153 1955 46 WP MM GEORGIA 1955-07-25 12:00:00 TS 19.0833 146.250 985 tokyo main 1873 1793 OOO______OOO__ jtwc_wp WP101955 19.1000 146.200 110 3 19.0000 146.300 9 985 0 0 0 19.1000 146.400 5 87 986 19.1000 146.200 TC 110 19.1000 146.200 4 110 19.1000 146.200 110 986 180 16 325
1955204N11153 1955 46 WP MM GEORGIA 1955-07-25 15:00:00 TS 19.7298 145.789 main 1793 1713 PPP______PPP__ WP101955 19.7795 145.780 115 4 19.6219 145.887 9 985 0 0 19.7298 145.822 5 92 985 19.7795 145.780 TC 115 19.6887 145.685 4 110 19.7795 145.780 115 985 210 16 323
1955204N11153 1955 46 WP MM GEORGIA 1955-07-25 18:00:00 TS 20.3231 145.272 985 tokyo main 1713 1642 OOO______OPO__ jtwc_wp WP101955 20.4000 145.300 120 4 20.2000 145.400 9 985 0 0 0 20.3000 145.200 5 97 985 20.4000 145.300 TC 120 20.2388 145.132 4 110 20.4000 145.300 120 985 240 15 315
1955204N11153 1955 46 WP MM GEORGIA 1955-07-25 21:00:00 TS 20.8116 144.621 main 1639 1576 PPP______PPP__ WP101955 20.8449 144.652 115 4 20.7379 144.673 9 985 0 0 20.8523 144.557 5 97 985 20.8449 144.652 TC 115 20.7446 144.538 4 110 20.8449 144.652 115 985 240 16 305
1955204N11153 1955 46 WP MM GEORGIA 1955-07-26 00:00:00 TS 21.2167 143.900 985 tokyo main 1576 1514 OOO______OOO__ jtwc_wp WP101955 21.2000 143.900 110 3 21.2000 143.900 9 985 0 0 0 21.3000 143.900 5 97 985 21.2000 143.900 TC 110 21.2000 143.900 4 110 21.2000 143.900 110 985 240 15 299
1955204N11153 1955 46 WP MM GEORGIA 1955-07-26 03:00:00 TS 21.5599 143.176 main 1504 1442 PPP______PPP__ WP101955 21.5576 143.092 105 3 21.5567 143.306 9 985 0 0 21.5496 143.264 5 97 985 21.5576 143.092 TC 105 21.5800 143.212 4 105 21.5576 143.092 105 985 240 15 296
1955204N11153 1955 46 WP MM GEORGIA 1955-07-26 06:00:00 TS 21.8858 142.447 985 tokyo main 1437 1381 OOO______OPO__ jtwc_wp WP101955 21.9000 142.300 100 3 21.9000 142.700 9 985 0 0 0 21.8000 142.600 5 97 985 21.9000 142.300 TC 100 21.9150 142.484 4 101 21.9000 142.300 100 985 240 15 297
1955204N11153 1955 46 WP MM GEORGIA 1955-07-26 09:00:00 TS 22.2496 141.741 main 1377 1312 PPP______PPP__ WP101955 22.2269 141.634 95 2 22.3200 141.930 9 985 0 0 22.2548 141.872 5 87 985 22.2269 141.634 TC 95 22.2424 141.740 4 96 22.2269 141.634 96 985 210 15 301
1955204N11153 1955 46 WP MM GEORGIA 1955-07-26 12:00:00 TS 22.6667 141.033 985 tokyo main 1298 1230 OOO______OOO__ jtwc_wp WP101955 22.6000 141.000 90 2 22.8000 141.100 9 985 0 0 0 22.8000 141.100 4 77 986 22.6000 141.000 TC 90 22.6000 141.000 4 92 22.6000 141.000 92 986 180 16 305
1955204N11153 1955 46 WP MM GEORGIA 1955-07-26 15:00:00 TS 23.1725 140.292 main 1220 1144 PPP______PPP__ WP101955 23.0848 140.308 87 2 23.3650 140.270 9 982 0 0 23.3650 140.285 4 77 986 23.0848 140.308 TC 87 23.0507 140.273 4 87 23.0848 140.308 88 986 150 17 307
1955204N11153 1955 46 WP MM GEORGIA 1955-07-26 18:00:00 TS 23.6891 139.559 980 tokyo main 1144 1080 OOO______OPO__ jtwc_wp WP101955 23.6000 139.600 85 2 23.9000 139.500 9 980 0 0 0 23.9000 139.500 4 77 986 23.6000 139.600 TC 85 23.5345 139.556 4 83 23.6000 139.600 85 987 120 16 307
1955204N11153 1955 46 WP MM GEORGIA 1955-07-26 21:00:00 TS 24.1408 138.865 main 1080 1022 PPP______PPP__ WP101955 24.0649 138.885 80 1 24.2869 138.862 9 982 0 0 24.3371 138.812 4 77 986 24.0649 138.885 TC 80 24.0259 138.860 4 79 24.0649 138.885 80 986 120 15 305
1955204N11153 1955 46 WP MM GEORGIA 1955-07-27 00:00:00 TS 24.5500 138.217 985 tokyo main 1009 945 OOO______OOO__ jtwc_wp WP101955 24.5000 138.200 75 1 24.6000 138.300 9 985 0 0 0 24.7000 138.200 4 77 986 24.5000 138.200 TC 75 24.5000 138.200 4 75 24.5000 138.200 75 985 120 14 305
1955204N11153 1955 46 WP MM GEORGIA 1955-07-27 03:00:00 TS 24.9249 137.615 main 945 879 PPP______PPP__ WP101955 24.9071 137.577 75 1 24.8921 137.749 9 987 0 0 25.0071 137.634 4 72 988 24.9071 137.577 TC 75 24.9285 137.575 4 71 24.9071 137.577 75 986 120 13 305
1955204N11153 1955 46 WP MM GEORGIA 1955-07-27 06:00:00 TS 25.2893 137.048 990 tokyo main 873 807 OOO______OPO__ jtwc_wp WP101955 25.3000 137.000 75 1 25.2000 137.200 9 990 0 0 0 25.3000 137.100 4 68 990 25.3000 137.000 TC 75 25.3361 136.988 4 68 25.3000 137.000 75 988 120 13 306
1955204N11153 1955 46 WP MM GEORGIA 1955-07-27 09:00:00 TS 25.6779 136.475 main 807 750 PPP______PPP__ WP101955 25.7074 136.427 67 1 25.5850 136.593 9 992 0 0 25.6349 136.542 4 68 991 25.7074 136.427 TC 67 25.7256 136.432 4 65 25.7074 136.427 68 989 120 13 308
1955204N11153 1955 46 WP MM GEORGIA 1955-07-27 12:00:00 TS 26.0667 135.933 995 tokyo main 736 685 OOO______OOO__ jtwc_wp WP101955 26.1000 135.900 60 0 26.0000 136.000 9 995 0 0 0 26.0000 136.000 4 68 993 26.1000 135.900 TC 60 26.1000 135.900 2 62 26.1000 135.900 62 991 120 12 310
1955204N11153 1955 46 WP MM GEORGIA 1955-07-27 15:00:00 TS 26.4415 135.455 main 685 620 PPP______PPP__ WP101955 26.4571 135.449 55 0 26.4070 135.499 9 995 0 0 26.3996 135.507 4 63 993 26.4571 135.449 TC 55 26.4715 135.377 2 59 26.4571 135.449 56 991 120 11 311
1955204N11153 1955 46 WP MM GEORGIA 1955-07-27 18:00:00 TS 26.8048 134.979 995 tokyo main 620 566 OOO______OPO__ jtwc_wp WP101955 26.8000 135.000 50 0 26.8000 135.000 9 995 0 0 0 26.8000 135.000 3 58 993 26.8000 135.000 TC 50 26.8288 134.876 2 56 26.8000 135.000 50 992 120 12 308
1955204N11153 1955 46 WP MM GEORGIA 1955-07-27 21:00:00 TS 27.1649 134.429 main 551 497 PPP______PPP__ WP101955 27.1650 134.458 50 0 27.1574 134.415 9 995 0 0 27.1651 134.400 3 58 994 27.1650 134.458 TC 50 27.1716 134.387 2 53 27.1650 134.458 50 993 90 12 305
1955204N11153 1955 46 WP MM GEORGIA 1955-07-28 00:00:00 TS 27.5000 133.867 995 tokyo main 497 442 OOO______OOO__ jtwc_wp WP101955 27.5000 133.900 50 0 27.5000 133.800 9 995 0 0 0 27.5000 133.800 3 58 995 27.5000 133.900 TC 50 27.5000 133.900 2 50 27.5000 133.900 50 995 60 11 303
1955204N11153 1955 46 WP MM GEORGIA 1955-07-28 03:00:00 TS 27.7834 133.344 main 436 387 PPP______PPP__ WP101955 27.7497 133.392 50 0 27.8424 133.185 9 995 0 0 27.7995 133.299 3 53 995 27.7497 133.392 TC 50 27.8096 133.407 2 48 27.7497 133.392 49 995 60 11 302
1955204N11153 1955 46 WP MM GEORGIA 1955-07-28 06:00:00 TS 28.0677 132.835 995 tokyo main 381 328 OOO______OPO__ jtwc_wp WP101955 28.0000 132.900 50 0 28.2000 132.600 9 995 0 0 0 28.1000 132.800 3 48 996 28.0000 132.900 TC 50 28.1064 132.913 2 47 28.0000 132.900 48 996 60 11 305
1955204N11153 1955 46 WP MM GEORGIA 1955-07-28 09:00:00 TS 28.4116 132.310 main 328 277 PPP______PPP__ WP101955 28.3422 132.407 47 0 28.5999 132.055 9 997 0 0 28.4429 132.170 3 43 998 28.3422 132.407 TC 47 28.4001 132.413 2 46 28.3422 132.407 46 996 90 11 308
1955204N11153 1955 46 WP MM GEORGIA 1955-07-28 12:00:00 TS 28.7667 131.800 1000 tokyo main 267 219 OOO______OOO__ jtwc_wp WP101955 28.7000 131.900 45 0 29.0000 131.600 9 1000 0 0 0 28.8000 131.600 2 38 1000 28.7000 131.900 TC 45 28.7000 131.900 2 45 28.7000 131.900 45 997 120 11 308
1955204N11153 1955 46 WP MM GEORGIA 1955-07-28 15:00:00 TS 29.0895 131.323 main 219 179 PPP______PPP__ WP101955 28.9999 131.357 42 0 29.3798 131.255 9 1000 0 0 29.1646 131.240 2 38 1000 28.9999 131.357 TC 42 28.9929 131.371 2 43 28.9999 131.357 42 997 90 10 308
1955204N11153 1955 46 WP MM GEORGIA 1955-07-28 18:00:00 TS 29.3994 130.871 1000 tokyo main 179 146 OOO______OPO__ jtwc_wp WP101955 29.3000 130.800 40 0 29.7000 131.000 9 1000 0 0 0 29.5000 131.000 2 38 1000 29.3000 130.800 TC 40 29.2966 130.827 2 42 29.3000 130.800 40 998 60 10 308
1955204N11153 1955 46 WP MM GEORGIA 1955-07-28 21:00:00 TS 29.6956 130.424 main 147 125 PPP______PPP__ WP101955 29.6348 130.250 40 0 29.9000 130.762 9 1002 0 0 29.7425 130.762 2 38 1002 29.6348 130.250 TC 40 29.6271 130.270 2 41 29.6348 130.250 40 998 60 10 309
1955204N11153 1955 46 WP MM GEORGIA 1955-07-29 00:00:00 TS 30.0167 130.000 1004 tokyo main 130 106 OOO______OOO__ jtwc_wp WP101955 30.0000 129.700 40 0 30.1000 130.600 9 1004 0 0 0 30.0000 130.600 2 38 1004 30.0000 129.700 TC 40 30.0000 129.700 2 40 30.0000 129.700 40 999 60 10 314
1955204N11153 1955 46 WP MM GEORGIA 1955-07-29 03:00:00 TS 30.3937 129.601 main 106 101 PPP______PPP__ WP101955 30.3696 129.164 37 0 30.4424 130.512 9 1004 0 0 30.3849 130.483 2 38 1004 30.3696 129.164 TC 37 30.4259 129.117 2 36 30.3696 129.164 37 999 60 11 317
1955204N11153 1955 46 WP MM GEORGIA 1955-07-29 06:00:00 TS 30.8135 129.132 1004 tokyo main 113 109 OOO______OPO__ jtwc_wp WP101955 30.8000 128.600 35 0 30.8000 130.500 9 1004 0 0 0 30.8000 130.500 2 38 1004 30.8000 128.600 TC 35 30.8948 128.521 2 32 30.8000 128.600 35 999 60 13 314
1955204N11153 1955 46 WP MM GEORGIA 1955-07-29 09:00:00 TS 31.2791 128.539 main 161 161 PPP______PPP__ WP101955 31.3126 127.950 30 -1 31.0775 130.537 9 1006 0 0 31.1677 130.697 2 30 1005 31.3126 127.950 TC 30 31.3913 127.915 2 28 31.3126 127.950 30 999 60 15 313
1955204N11153 1955 46 WP MM GEORGIA 1955-07-29 12:00:00 TS 31.8167 127.883 1008 tokyo main 191 80 OOO______OOO__ jtwc_wp WP101955 31.9000 127.300 25 -1 31.3000 130.600 2 1008 0 0 0 31.5000 131.000 1 23 1006 31.9000 127.300 TC 25 31.9000 127.300 1 25 31.9000 127.300 25 1000 60 20 309
1955204N11153 1955 46 WP MM GEORGIA 1955-07-29 15:00:00 TS 32.5377 126.726 main 78 9 P________P_P__ WP101955 32.5377 126.726 20 -1 2 0 0 1 32.5377 126.726 TC 20 1 32.5377 126.726 20 1000 60 20 314
1955204N11153 1955 46 WP MM GEORGIA 1955-07-29 18:00:00 TS 33.2000 126.200 main 9 O________O_O__ jtwc_wp WP101955 33.2000 126.200 15 -1 33.2000 126.200 TC 15 1 33.2000 126.200 15 1001 60 16 326

デジタル台風データ・検索

IBTrACS Databaseについて

本データベースは、米国NOAAが公開する1842年以降の世界の熱帯低気圧のベストトラックデータアーカイブInternational Best Track Archive for Climate Stewardship (IBTrACS)を、ウェブで閲覧しやすい形式に変換したものです。

最終更新日:2021-12-03